Accueil
METAR-TAF:

METAR-TAF

Aéroports :

Aéroport d'Iakoutsk

Iakoutsk, Russie

latitude: 62-01N, longitude: 129-43E, altitude: 103 m

Observation

Le bulletin a été fait il y a 45 minutes, à 17:30 UTC
Vent calme
Température -11°C
Humidité 92%
Pression 1020 hPa
Visibilité: 5000 m
Nuages fragmentés à une hauteur de 500 ft
brume

METAR: UEEE 221730Z 00000MPS 5000 BR BKN005 M11/M12 Q1020 R23L/450145 NOSIG RMK QBB150 QFE756

Heure: 03:15 (18:15 UTC)

Prévision

Le bulletin a été fait il y a 1 heure et 15 minutes, à 17:00 UTC
Prévision valable du 22 à 18 UTC au 23 à 24 UTC
Vent 2 kt de direction variable
Visibilité: 3200 m
à une hauteur de 300 ft
brume
Temporairement
du 22 à 18 UTC au 23 à 03 UTC
Visibilité: 0300 m
brouillard givrant

TAF: UEEE 221700Z 2218/2324 VRB01MPS 3200 BR VV003 TEMPO 2218/2303 0300 FZFG

Observations et prévisions météorologiques de plus de 4000 aéroports (messages METAR et TAF).

Les stations disponibles sont représentées par des disques jaunes et rouges sur la carte.

Passer la souris dessus pour voir le nom de la station.

Cliquer dessus pour voir les observations et prévisions météorologiques.

Pour changer de carte: cliquez sur les boutons verts avec une croix noire pour zoomer, sur le bouton vert avec un tiret pour effectuer un zoom arrière, ou sur les flèches vertes pour les cartes adjacentes.


METAR-TAF: